Time;durP1;ratioP1;P1;durP2;ratioP2;P2;SDS_P1;SDS_P2;PMS_P1;PMS_P2;Temp;Humidity;BMP_temperature;BMP_pressure;BME280_temperature;BME280_humidity;BME280_pressure;Samples;Min_cycle;Max_cycle;Signal;HPM_P1;HPM_P2
2022/04/30 00:00:44;;;;;;;;;;;;;;;;;;5008935;28;19918;-71
2022/04/30 00:03:10;;;;;;;;;;;;;;;;;;5015462;28;19928;-72
2022/04/30 00:05:37;;;;;;;;;;;;;;;;;;5015674;28;19944;-73
2022/04/30 00:08:03;;;;;;;;;;;;;;;;;;5015989;28;19925;-72
2022/04/30 00:10:29;;;;;;;;;;;;;;;;;;5001040;28;19948;-72
2022/04/30 00:12:54;;;;;;;;;;;;;;;;;;5014921;28;19921;-73
2022/04/30 00:15:20;;;;;;;;;;;;;;;;;;5014922;28;19927;-71
2022/04/30 00:17:50;;;;;;;;;;;;;;;;;;5014035;28;19921;-72
2022/04/30 00:20:15;;;;;;;;;;;;;;;;;;5015324;28;19952;-72
2022/04/30 00:22:40;;;;;;;;;;;;;;;;;;5015267;28;20566;-72
2022/04/30 00:25:07;;;;;;;;;;;;;;;;;;5016072;28;20270;-71
2022/04/30 00:27:33;;;;;;;;;;;;;;;;;;4982000;28;19921;-72
2022/04/30 00:29:58;;;;;;;;;;;;;;;;;;5015396;28;20000;-73
2022/04/30 00:32:26;;;;;;;;;;;;;;;;;;5015229;28;19922;-71
2022/04/30 00:34:51;;;;;;;;;;;;;;;;;;5013212;28;19941;-72
2022/04/30 00:37:19;;;;;;;;;;;;;;;;;;5014295;28;20354;-72
2022/04/30 00:39:44;;;;;;;;;;;;;;;;;;5015588;28;20351;-71
2022/04/30 00:42:10;;;;;;;;;;;;;;;;;;5014585;28;20050;-71
2022/04/30 00:44:35;;;;;;;;;;;;;;;;;;5014882;28;20000;-71
2022/04/30 00:47:00;;;;;;;;;;;;;;;;;;5015028;28;19921;-71
2022/04/30 00:49:25;;;;;;;;;;;;;;;;;;5014209;28;20255;-72
2022/04/30 00:51:50;;;;;;;;;;;;;;;;;;5013966;28;20335;-72
2022/04/30 00:54:17;;;;;;;;;;;;;;;;;;4997202;28;20265;-72
2022/04/30 00:56:43;;;;;;;;;;;;;;;;;;4997510;28;19917;-72
2022/04/30 00:59:12;;;;;;;;;;;;;;;;;;5015041;28;20361;-72
2022/04/30 01:01:37;;;;;;;;;;;;;;;;;;4997115;28;19928;-72
2022/04/30 01:04:05;;;;;;;;;;;;;;;;;;5014489;28;19918;-72
2022/04/30 01:06:37;;;;;;;;;;;;;;;;;;5014428;28;19976;-72
2022/04/30 01:09:02;;;;;;;;;;;;;;;;;;4996410;28;20323;-73
2022/04/30 01:11:27;;;;;;;;;;;;;;;;;;5014207;28;19928;-72
2022/04/30 01:13:54;;;;;;;;;;;;;;;;;;4978965;28;20375;-71
2022/04/30 01:16:21;;;;;;;;;;;;;;;;;;5014740;28;19917;-71
2022/04/30 01:18:46;;;;;;;;;;;;;;;;;;5001526;28;19922;-72
2022/04/30 01:21:12;;;;;;;;;;;;;;;;;;5014026;28;19964;-73
2022/04/30 01:23:40;;;;;;;;;;;;;;;;;;5014509;28;19971;-72
2022/04/30 01:26:05;;;;;;;;;;;;;;;;;;4996338;28;20231;-72
2022/04/30 01:28:33;;;;;;;;;;;;;;;;;;4997474;28;20059;-72
2022/04/30 01:30:58;;;;;;;;;;;;;;;;;;5013662;28;20377;-71
2022/04/30 01:39:01;;;;;;;;;;;;;;;;;;5015071;28;19923;-72
2022/04/30 01:41:27;;;;;;;;;;;;;;;;;;5014511;28;19921;-71
2022/04/30 01:43:54;;;;;;;;;;;;;;;;;;5013993;28;19918;-72
2022/04/30 01:46:20;;;;;;;;;;;;;;;;;;5013912;28;19929;-72
2022/04/30 01:48:45;;;;;;;;;;;;;;;;;;4996973;28;19921;-71
2022/04/30 01:51:14;;;;;;;;;;;;;;;;;;5014150;28;19961;-72
2022/04/30 01:53:42;;;;;;;;;;;;;;;;;;4980158;28;19928;-72
2022/04/30 01:56:07;;;;;;;;;;;;;;;;;;5014070;28;19932;-72
2022/04/30 01:58:33;;;;;;;;;;;;;;;;;;5013114;28;19917;-72
2022/04/30 02:01:00;;;;;;;;;;;;;;;;;;5011160;28;20256;-72
2022/04/30 02:03:27;;;;;;;;;;;;;;;;;;4996188;28;20455;-72
2022/04/30 02:05:52;;;;;;;;;;;;;;;;;;4995812;28;20459;-72
2022/04/30 02:08:20;;;;;;;;;;;;;;;;;;5013587;28;19917;-71
2022/04/30 02:10:45;;;;;;;;;;;;;;;;;;5014250;28;19917;-71
2022/04/30 02:13:10;;;;;;;;;;;;;;;;;;5014162;28;20323;-72
2022/04/30 02:15:36;;;;;;;;;;;;;;;;;;4996215;28;19929;-72
2022/04/30 02:18:04;;;;;;;;;;;;;;;;;;5013285;28;19951;-72
2022/04/30 02:20:31;;;;;;;;;;;;;;;;;;4996562;28;20358;-72
2022/04/30 02:22:57;;;;;;;;;;;;;;;;;;5014298;28;19913;-72
2022/04/30 02:25:22;;;;;;;;;;;;;;;;;;4997063;28;19917;-72
2022/04/30 02:27:49;;;;;;;;;;;;;;;;;;5013535;28;20004;-71
2022/04/30 02:30:17;;;;;;;;;;;;;;;;;;5014298;28;19928;-71
2022/04/30 02:32:44;;;;;;;;;;;;;;;;;;5016553;28;19917;-72
2022/04/30 02:35:10;;;;;;;;;;;;;;;;;;5017890;28;19941;-72
2022/04/30 02:37:35;;;;;;;;;;;;;;;;;;5017405;28;19953;-72
2022/04/30 02:40:01;;;;;;;;;;;;;;;;;;5000059;28;19917;-72
2022/04/30 02:42:27;;;;;;;;;;;;;;;;;;5015698;28;19917;-72
2022/04/30 02:44:57;;;;;;;;;;;;;;;;;;5017337;28;19928;-72
2022/04/30 02:47:23;;;;;;;;;;;;;;;;;;5016682;28;20259;-72
2022/04/30 02:49:48;;;;;;;;;;;;;;;;;;5017598;28;19914;-72
2022/04/30 02:52:13;;;;;;;;;;;;;;;;;;5017275;28;19917;-72
2022/04/30 02:54:39;;;;;;;;;;;;;;;;;;5016962;28;19917;-72
2022/04/30 02:57:04;;;;;;;;;;;;;;;;;;5017283;28;19914;-72
2022/04/30 03:02:13;;;;;;;;;;;;;;;;;;5016956;28;20377;-72
2022/04/30 03:04:38;;;;;;;;;;;;;;;;;;5013782;28;19968;-72
2022/04/30 03:07:03;;;;;;;;;;;;;;;;;;5015884;28;19973;-71
2022/04/30 03:09:31;;;;;;;;;;;;;;;;;;5000295;28;20004;-72
2022/04/30 03:11:58;;;;;;;;;;;;;;;;;;5002689;28;20025;-72
2022/04/30 03:14:23;;;;;;;;;;;;;;;;;;5016957;28;19928;-72
2022/04/30 03:22:18;;;;;;;;;;;;;;;;;;5015546;28;19928;-72
2022/04/30 03:24:46;;;;;;;;;;;;;;;;;;5016420;28;19917;-72
2022/04/30 03:27:12;;;;;;;;;;;;;;;;;;5016301;28;20258;-72
2022/04/30 03:29:40;;;;;;;;;;;;;;;;;;5016263;28;19922;-72
2022/04/30 03:32:06;;;;;;;;;;;;;;;;;;5016266;28;19917;-72
2022/04/30 03:34:32;;;;;;;;;;;;;;;;;;5016199;28;20262;-71
2022/04/30 03:36:58;;;;;;;;;;;;;;;;;;5016607;28;19925;-71
2022/04/30 03:39:26;;;;;;;;;;;;;;;;;;5012505;28;19917;-72
2022/04/30 03:41:53;;;;;;;;;;;;;;;;;;5016140;28;19925;-72
2022/04/30 03:44:19;;;;;;;;;;;;;;;;;;5016068;28;19924;-72
2022/04/30 03:46:44;;;;;;;;;;;;;;;;;;5016086;28;20004;-71
2022/04/30 03:49:09;;;;;;;;;;;;;;;;;;5015846;28;19917;-72
2022/04/30 03:51:34;;;;;;;;;;;;;;;;;;5016373;28;19966;-73
2022/04/30 03:54:02;;;;;;;;;;;;;;;;;;5016329;28;20379;-71
2022/04/30 03:56:27;;;;;;;;;;;;;;;;;;5015928;28;19960;-73
2022/04/30 03:58:52;;;;;;;;;;;;;;;;;;5015198;28;19971;-72
2022/04/30 04:01:21;;;;;;;;;;;;;;;;;;5014080;28;19925;-72
2022/04/30 04:03:48;;;;;;;;;;;;;;;;;;5015628;28;20478;-72
2022/04/30 04:06:16;;;;;;;;;;;;;;;;;;5014817;28;20318;-73
2022/04/30 04:08:42;;;;;;;;;;;;;;;;;;4997941;28;19917;-73
2022/04/30 04:11:10;;;;;;;;;;;;;;;;;;5015727;28;20297;-72
2022/04/30 04:19:06;;;;;;;;;;;;;;;;;;5014341;28;20008;-72
2022/04/30 04:21:31;;;;;;;;;;;;;;;;;;5014859;28;20297;-73
2022/04/30 04:26:40;;;;;;;;;;;;;;;;;;5015246;28;19932;-73
2022/04/30 04:29:05;;;;;;;;;;;;;;;;;;5013622;28;19925;-72
2022/04/30 04:31:33;;;;;;;;;;;;;;;;;;5014768;28;19917;-73
2022/04/30 04:33:59;;;;;;;;;;;;;;;;;;4997699;28;19918;-71
2022/04/30 04:36:24;;;;;;;;;;;;;;;;;;5015098;28;19918;-71
2022/04/30 04:38:49;;;;;;;;;;;;;;;;;;5015252;28;20270;-71
2022/04/30 04:41:15;;;;;;;;;;;;;;;;;;5015485;28;19914;-70
2022/04/30 04:43:40;;;;;;;;;;;;;;;;;;5015318;28;19953;-71
2022/04/30 04:46:06;;;;;;;;;;;;;;;;;;5015195;28;19933;-70
2022/04/30 04:48:33;;;;;;;;;;;;;;;;;;4998560;28;19917;-71
2022/04/30 04:50:59;;;;;;;;;;;;;;;;;;5015210;28;19920;-70
2022/04/30 04:53:24;;;;;;;;;;;;;;;;;;4997188;28;20246;-70
2022/04/30 04:55:52;;;;;;;;;;;;;;;;;;4998130;28;19913;-71
2022/04/30 04:58:19;;;;;;;;;;;;;;;;;;5014964;28;19921;-71
2022/04/30 05:00:46;;;;;;;;;;;;;;;;;;5014314;28;20004;-70
2022/04/30 05:03:14;;;;;;;;;;;;;;;;;;5014815;28;19963;-71
2022/04/30 05:05:41;;;;;;;;;;;;;;;;;;5014709;28;19922;-71
2022/04/30 05:08:07;;;;;;;;;;;;;;;;;;5015096;28;19922;-70
2022/04/30 05:10:32;;;;;;;;;;;;;;;;;;5015289;28;19925;-70
2022/04/30 05:12:57;;;;;;;;;;;;;;;;;;5014190;28;19991;-71
2022/04/30 05:15:22;;;;;;;;;;;;;;;;;;5014857;28;20294;-73
2022/04/30 05:17:48;;;;;;;;;;;;;;;;;;5015039;28;19913;-72
2022/04/30 05:20:13;;;;;;;;;;;;;;;;;;5014737;28;20297;-72
2022/04/30 05:22:38;;;;;;;;;;;;;;;;;;5014270;28;19914;-72
2022/04/30 05:25:06;;;;;;;;;;;;;;;;;;5015286;28;19924;-73
2022/04/30 05:27:33;;;;;;;;;;;;;;;;;;4997076;28;19979;-73
2022/04/30 05:29:58;;;;;;;;;;;;;;;;;;5014638;28;20004;-73
2022/04/30 05:32:24;;;;;;;;;;;;;;;;;;5014833;28;20365;-73
2022/04/30 05:34:50;;;;;;;;;;;;;;;;;;5014427;28;20008;-73
2022/04/30 05:37:18;;;;;;;;;;;;;;;;;;5013855;28;19917;-73
2022/04/30 05:39:43;;;;;;;;;;;;;;;;;;5008579;28;20355;-73
2022/04/30 05:42:08;;;;;;;;;;;;;;;;;;5014331;28;20008;-73
2022/04/30 05:44:33;;;;;;;;;;;;;;;;;;5014005;28;19917;-73
2022/04/30 05:46:58;;;;;;;;;;;;;;;;;;5014528;28;20091;-73
2022/04/30 05:49:24;;;;;;;;;;;;;;;;;;4981116;28;19928;-74
2022/04/30 05:51:52;;;;;;;;;;;;;;;;;;5014777;28;19913;-70
2022/04/30 05:54:17;;;;;;;;;;;;;;;;;;5014027;28;20339;-71
2022/04/30 05:56:42;;;;;;;;;;;;;;;;;;5013901;28;20024;-71
2022/04/30 05:59:08;;;;;;;;;;;;;;;;;;5014976;28;20339;-73
2022/04/30 06:01:36;;;;;;;;;;;;;;;;;;5013764;28;19945;-73
2022/04/30 06:04:02;;;;;;;;;;;;;;;;;;4996811;28;19917;-73
2022/04/30 06:06:29;;;;;;;;;;;;;;;;;;5017070;28;19925;-73
2022/04/30 06:08:56;;;;;;;;;;;;;;;;;;5017759;28;19922;-73
2022/04/30 06:11:23;;;;;;;;;;;;;;;;;;5018557;28;19921;-73
2022/04/30 06:13:49;;;;;;;;;;;;;;;;;;5018132;28;19936;-73
2022/04/30 06:16:15;;;;;;;;;;;;;;;;;;5017604;28;20327;-73
2022/04/30 06:18:40;;;;;;;;;;;;;;;;;;5015014;28;20309;-73
2022/04/30 06:21:05;;;;;;;;;;;;;;;;;;5018587;28;19914;-73
2022/04/30 06:23:31;;;;;;;;;;;;;;;;;;5016617;28;19972;-73
2022/04/30 06:25:56;;;;;;;;;;;;;;;;;;4999595;28;19926;-73
2022/04/30 06:28:24;;;;;;;;;;;;;;;;;;5017946;28;19921;-74
2022/04/30 06:30:52;;;;;;;;;;;;;;;;;;5017353;28;19983;-73
2022/04/30 06:33:17;;;;;;;;;;;;;;;;;;5014108;28;19929;-75
2022/04/30 06:35:43;;;;;;;;;;;;;;;;;;5017511;28;19943;-73
2022/04/30 06:38:08;;;;;;;;;;;;;;;;;;5000026;28;20311;-72
2022/04/30 06:40:36;;;;;;;;;;;;;;;;;;5017187;28;19928;-72
2022/04/30 06:43:02;;;;;;;;;;;;;;;;;;5017119;28;20211;-70
2022/04/30 06:45:30;;;;;;;;;;;;;;;;;;5017783;28;19914;-72
2022/04/30 06:47:57;;;;;;;;;;;;;;;;;;5017141;28;20012;-71
2022/04/30 06:50:25;;;;;;;;;;;;;;;;;;5017655;28;20391;-72
2022/04/30 06:58:18;;;;;;;;;;;;;;;;;;5010490;28;19928;-71
2022/04/30 07:03:23;;;;;;;;;;;;;;;;;;5017002;28;20004;-72
2022/04/30 07:05:51;;;;;;;;;;;;;;;;;;5016817;28;19932;-71
2022/04/30 07:08:16;;;;;;;;;;;;;;;;;;5014984;28;19944;-70
2022/04/30 07:10:42;;;;;;;;;;;;;;;;;;5017526;28;20343;-71
2022/04/30 07:13:07;;;;;;;;;;;;;;;;;;5017495;28;19964;-72
2022/04/30 07:15:32;;;;;;;;;;;;;;;;;;5017269;28;19921;-71
2022/04/30 07:17:57;;;;;;;;;;;;;;;;;;5015939;28;19925;-71
2022/04/30 07:20:22;;;;;;;;;;;;;;;;;;5016776;28;20255;-72
2022/04/30 07:22:53;;;;;;;;;;;;;;;;;;5016908;28;20016;-73
2022/04/30 07:25:37;;;;;;;;;;;;;;;;;;5017082;28;19921;-73
2022/04/30 07:28:02;;;;;;;;;;;;;;;;;;5012833;28;19956;-72
2022/04/30 07:30:34;;;;;;;;;;;;;;;;;;5017085;28;20310;-72
2022/04/30 07:32:59;;;;;;;;;;;;;;;;;;5016813;28;19924;-72
2022/04/30 07:35:24;;;;;;;;;;;;;;;;;;5016513;28;19940;-76
2022/04/30 07:37:49;;;;;;;;;;;;;;;;;;5015244;28;19917;-73
2022/04/30 07:40:15;;;;;;;;;;;;;;;;;;5016342;28;19975;-73
2022/04/30 07:42:40;;;;;;;;;;;;;;;;;;5017052;28;19971;-73
2022/04/30 07:45:07;;;;;;;;;;;;;;;;;;5018071;28;20293;-74
2022/04/30 07:47:33;;;;;;;;;;;;;;;;;;5016075;28;19922;-74
2022/04/30 07:49:58;;;;;;;;;;;;;;;;;;5015847;28;20318;-76
2022/04/30 07:52:23;;;;;;;;;;;;;;;;;;5015443;28;19948;-74
2022/04/30 07:54:48;;;;;;;;;;;;;;;;;;5016537;28;20004;-73
2022/04/30 07:57:13;;;;;;;;;;;;;;;;;;5016353;28;19939;-72
2022/04/30 07:59:41;;;;;;;;;;;;;;;;;;4998213;28;19996;-79
2022/04/30 08:02:06;;;;;;;;;;;;;;;;;;5013406;28;19918;-80
2022/04/30 08:04:34;;;;;;;;;;;;;;;;;;5014694;28;19974;-77
2022/04/30 08:06:59;;;;;;;;;;;;;;;;;;5013919;28;19922;-77
2022/04/30 08:09:27;;;;;;;;;;;;;;;;;;5015597;28;19975;-77
2022/04/30 08:11:52;;;;;;;;;;;;;;;;;;4996647;28;20408;-77
2022/04/30 08:14:18;;;;;;;;;;;;;;;;;;5016070;28;19996;-76
2022/04/30 08:16:43;;;;;;;;;;;;;;;;;;5015589;28;19917;-77
2022/04/30 08:19:08;;;;;;;;;;;;;;;;;;5015079;28;19927;-77
2022/04/30 08:21:33;;;;;;;;;;;;;;;;;;4997959;28;19917;-75
2022/04/30 08:24:01;;;;;;;;;;;;;;;;;;5015282;28;19948;-77
2022/04/30 08:26:26;;;;;;;;;;;;;;;;;;5015308;28;20012;-77
2022/04/30 08:28:51;;;;;;;;;;;;;;;;;;5013860;28;19968;-76
2022/04/30 08:31:18;;;;;;;;;;;;;;;;;;4981402;28;20012;-77
2022/04/30 08:33:43;;;;;;;;;;;;;;;;;;5014872;28;19918;-76
2022/04/30 08:36:10;;;;;;;;;;;;;;;;;;5014929;28;19929;-78
2022/04/30 08:38:36;;;;;;;;;;;;;;;;;;5015420;28;19913;-77
2022/04/30 08:41:01;;;;;;;;;;;;;;;;;;5014316;28;19984;-77
2022/04/30 08:43:26;;;;;;;;;;;;;;;;;;5015420;28;20359;-79
2022/04/30 08:45:54;;;;;;;;;;;;;;;;;;4996773;28;19929;-79
2022/04/30 08:48:24;;;;;;;;;;;;;;;;;;4998090;28;19932;-80
2022/04/30 08:50:51;;;;;;;;;;;;;;;;;;4997305;28;20031;-80
2022/04/30 08:53:21;;;;;;;;;;;;;;;;;;5014832;28;19917;-78
2022/04/30 08:55:47;;;;;;;;;;;;;;;;;;5013562;28;19921;-80
2022/04/30 08:58:12;;;;;;;;;;;;;;;;;;5014558;28;19940;-80
2022/04/30 09:00:38;;;;;;;;;;;;;;;;;;5014076;28;19991;-79
2022/04/30 09:03:06;;;;;;;;;;;;;;;;;;5014164;28;20548;-78
2022/04/30 09:05:32;;;;;;;;;;;;;;;;;;5013750;28;20370;-80
2022/04/30 09:07:58;;;;;;;;;;;;;;;;;;5014489;28;19918;-80
2022/04/30 09:10:24;;;;;;;;;;;;;;;;;;5014864;28;19917;-79
2022/04/30 09:12:52;;;;;;;;;;;;;;;;;;5015308;28;19928;-81
2022/04/30 09:15:18;;;;;;;;;;;;;;;;;;5015207;28;19917;-79
2022/04/30 09:17:45;;;;;;;;;;;;;;;;;;4997866;28;20004;-79
2022/04/30 09:20:16;;;;;;;;;;;;;;;;;;5014771;28;20500;-81
2022/04/30 09:22:44;;;;;;;;;;;;;;;;;;5015242;28;19971;-78
2022/04/30 09:25:13;;;;;;;;;;;;;;;;;;5018325;28;19929;-79
2022/04/30 09:27:45;;;;;;;;;;;;;;;;;;5012731;28;19933;-82
2022/04/30 09:30:14;;;;;;;;;;;;;;;;;;5011795;28;19929;-83
2022/04/30 09:32:42;;;;;;;;;;;;;;;;;;5008965;28;19956;-82
2022/04/30 09:38:01;;;;;;;;;;;;;;;;;;5011809;28;20405;-81
2022/04/30 09:40:26;;;;;;;;;;;;;;;;;;5010627;28;19924;-82
2022/04/30 09:42:51;;;;;;;;;;;;;;;;;;5014266;28;19917;-81
2022/04/30 09:45:30;;;;;;;;;;;;;;;;;;4994658;28;20220;-82
2022/04/30 09:47:58;;;;;;;;;;;;;;;;;;4991782;28;19944;-81
2022/04/30 09:55:55;;;;;;;;;;;;;;;;;;5000224;28;20310;-82
2022/04/30 09:58:24;;;;;;;;;;;;;;;;;;4997600;28;19956;-82
2022/04/30 10:00:52;;;;;;;;;;;;;;;;;;5014397;28;19936;-82
2022/04/30 10:03:17;;;;;;;;;;;;;;;;;;5012077;28;19925;-80
2022/04/30 10:05:42;;;;;;;;;;;;;;;;;;4996666;28;20009;-81
2022/04/30 10:08:08;;;;;;;;;;;;;;;;;;4978633;28;19917;-79
2022/04/30 10:10:34;;;;;;;;;;;;;;;;;;5014427;28;19917;-81
2022/04/30 10:13:06;;;;;;;;;;;;;;;;;;4994422;28;20004;-81
2022/04/30 10:15:38;;;;;;;;;;;;;;;;;;5013213;28;19924;-82
2022/04/30 10:18:07;;;;;;;;;;;;;;;;;;5008172;28;19960;-81
2022/04/30 10:20:51;;;;;;;;;;;;;;;;;;4998897;28;19913;-80
2022/04/30 10:23:17;;;;;;;;;;;;;;;;;;4996845;28;19918;-82
2022/04/30 10:25:43;;;;;;;;;;;;;;;;;;4996271;28;19917;-82
2022/04/30 10:28:26;;;;;;;;;;;;;;;;;;5013762;28;20020;-83
2022/04/30 10:31:25;;;;;;;;;;;;;;;;;;5005461;28;19915;-82
2022/04/30 10:33:51;;;;;;;;;;;;;;;;;;5018944;28;19920;-82
2022/04/30 10:36:22;;;;;;;;;;;;;;;;;;5018658;28;20401;-79
2022/04/30 10:39:04;;;;;;;;;;;;;;;;;;5016461;28;19921;-80
2022/04/30 10:41:29;;;;;;;;;;;;;;;;;;5017527;28;19918;-80
2022/04/30 10:44:02;;;;;;;;;;;;;;;;;;5000155;28;19944;-80
2022/04/30 10:46:34;;;;;;;;;;;;;;;;;;5017964;28;19948;-81
2022/04/30 10:49:00;;;;;;;;;;;;;;;;;;5019044;28;19913;-80
2022/04/30 10:51:31;;;;;;;;;;;;;;;;;;5018240;28;19917;-81
2022/04/30 10:53:56;;;;;;;;;;;;;;;;;;5020675;28;19990;-81
2022/04/30 10:59:51;;;;;;;;;;;;;;;;;;5021715;28;19924;-82
2022/04/30 11:02:16;;;;;;;;;;;;;;;;;;4997579;28;20264;-82
2022/04/30 11:04:42;;;;;;;;;;;;;;;;;;5021683;28;19928;-80
2022/04/30 11:07:07;;;;;;;;;;;;;;;;;;5020842;28;19925;-80
2022/04/30 11:09:40;;;;;;;;;;;;;;;;;;5022113;28;19914;-83
2022/04/30 11:12:05;;;;;;;;;;;;;;;;;;4998853;28;19913;-83
2022/04/30 11:14:31;;;;;;;;;;;;;;;;;;5021745;28;19929;-81
2022/04/30 11:16:57;;;;;;;;;;;;;;;;;;5022025;28;19913;-80
2022/04/30 11:19:25;;;;;;;;;;;;;;;;;;5021444;28;19929;-80
2022/04/30 11:22:09;;;;;;;;;;;;;;;;;;5007107;28;19925;-80
2022/04/30 11:24:34;;;;;;;;;;;;;;;;;;5004252;28;20030;-81
2022/04/30 11:27:03;;;;;;;;;;;;;;;;;;5021847;28;19961;-81
2022/04/30 11:29:31;;;;;;;;;;;;;;;;;;5021846;28;19917;-82
2022/04/30 11:31:57;;;;;;;;;;;;;;;;;;5019512;28;20004;-82
2022/04/30 11:34:22;;;;;;;;;;;;;;;;;;5003257;28;19949;-81
2022/04/30 11:37:00;;;;;;;;;;;;;;;;;;4985934;28;19924;-83
2022/04/30 11:39:26;;;;;;;;;;;;;;;;;;5020192;28;20055;-82
2022/04/30 11:41:54;;;;;;;;;;;;;;;;;;5019383;28;19972;-82
2022/04/30 11:44:21;;;;;;;;;;;;;;;;;;5019373;28;19913;-81
2022/04/30 11:46:47;;;;;;;;;;;;;;;;;;5019892;28;20466;-82
2022/04/30 11:49:17;;;;;;;;;;;;;;;;;;5019644;28;19995;-83
2022/04/30 11:51:42;;;;;;;;;;;;;;;;;;5019978;28;19943;-81
2022/04/30 11:54:08;;;;;;;;;;;;;;;;;;5019930;28;19914;-82
2022/04/30 11:56:34;;;;;;;;;;;;;;;;;;5002386;28;19913;-82
2022/04/30 11:58:59;;;;;;;;;;;;;;;;;;5019245;28;20009;-82
2022/04/30 12:01:29;;;;;;;;;;;;;;;;;;5019595;28;19953;-82
2022/04/30 12:04:04;;;;;;;;;;;;;;;;;;5018781;28;19945;-84
2022/04/30 12:06:30;;;;;;;;;;;;;;;;;;4986567;28;19975;-82
2022/04/30 12:08:55;;;;;;;;;;;;;;;;;;5019517;28;19918;-82
2022/04/30 12:11:21;;;;;;;;;;;;;;;;;;5018929;28;20347;-81
2022/04/30 12:14:02;;;;;;;;;;;;;;;;;;5019719;28;20166;-83
2022/04/30 12:16:35;;;;;;;;;;;;;;;;;;5019403;28;20212;-82
2022/04/30 12:24:40;;;;;;;;;;;;;;;;;;5015966;28;19928;-82
2022/04/30 12:27:08;;;;;;;;;;;;;;;;;;5000882;28;19917;-83
2022/04/30 12:29:33;;;;;;;;;;;;;;;;;;4999271;28;19921;-84
2022/04/30 12:32:02;;;;;;;;;;;;;;;;;;5014904;28;19921;-79
2022/04/30 12:34:32;;;;;;;;;;;;;;;;;;5014781;28;19925;-79
2022/04/30 12:36:58;;;;;;;;;;;;;;;;;;5015767;28;19913;-78
2022/04/30 12:39:26;;;;;;;;;;;;;;;;;;5015590;28;19917;-78
2022/04/30 12:41:52;;;;;;;;;;;;;;;;;;5016052;28;19913;-79
2022/04/30 12:44:17;;;;;;;;;;;;;;;;;;4998684;28;20355;-78
2022/04/30 12:46:44;;;;;;;;;;;;;;;;;;5015881;28;19922;-80
2022/04/30 12:49:09;;;;;;;;;;;;;;;;;;5015871;28;19913;-78
2022/04/30 12:51:34;;;;;;;;;;;;;;;;;;5015709;28;19972;-78
2022/04/30 12:53:59;;;;;;;;;;;;;;;;;;5015386;28;19914;-77
2022/04/30 12:56:25;;;;;;;;;;;;;;;;;;5015313;28;20000;-78
2022/04/30 12:58:51;;;;;;;;;;;;;;;;;;5015408;28;19917;-76
2022/04/30 13:01:16;;;;;;;;;;;;;;;;;;5015084;28;19928;-78
2022/04/30 13:03:44;;;;;;;;;;;;;;;;;;4998159;28;19909;-77
2022/04/30 13:06:09;;;;;;;;;;;;;;;;;;5014921;28;20327;-80
2022/04/30 13:14:03;;;;;;;;;;;;;;;;;;5008484;28;20258;-77
2022/04/30 13:16:28;;;;;;;;;;;;;;;;;;5014600;28;19914;-78
2022/04/30 13:18:53;;;;;;;;;;;;;;;;;;5014803;28;20262;-78
2022/04/30 13:21:18;;;;;;;;;;;;;;;;;;4997718;28;19920;-78
2022/04/30 13:23:46;;;;;;;;;;;;;;;;;;5014666;28;19917;-78
2022/04/30 13:26:11;;;;;;;;;;;;;;;;;;5014266;28;19960;-78
2022/04/30 13:28:36;;;;;;;;;;;;;;;;;;5014802;28;20030;-78
2022/04/30 13:31:04;;;;;;;;;;;;;;;;;;4997490;28;19922;-78
2022/04/30 13:33:29;;;;;;;;;;;;;;;;;;4997184;28;19924;-78
2022/04/30 13:35:54;;;;;;;;;;;;;;;;;;5014720;28;19913;-77
2022/04/30 13:38:20;;;;;;;;;;;;;;;;;;4997530;28;19913;-78
2022/04/30 13:40:48;;;;;;;;;;;;;;;;;;4997665;28;19940;-77
2022/04/30 13:43:15;;;;;;;;;;;;;;;;;;4997659;28;19944;-78
2022/04/30 13:45:40;;;;;;;;;;;;;;;;;;5014576;28;19913;-78
2022/04/30 13:48:05;;;;;;;;;;;;;;;;;;5014625;28;19979;-78
2022/04/30 13:50:33;;;;;;;;;;;;;;;;;;4997603;28;19968;-79
2022/04/30 13:53:01;;;;;;;;;;;;;;;;;;5014546;28;19975;-79
2022/04/30 13:55:29;;;;;;;;;;;;;;;;;;5014028;28;19921;-78
2022/04/30 13:57:54;;;;;;;;;;;;;;;;;;5014922;28;19971;-78
2022/04/30 14:00:21;;;;;;;;;;;;;;;;;;5014940;28;19918;-78
2022/04/30 14:02:47;;;;;;;;;;;;;;;;;;5014437;28;19918;-78
2022/04/30 14:05:14;;;;;;;;;;;;;;;;;;4997516;28;19924;-78
2022/04/30 14:07:39;;;;;;;;;;;;;;;;;;5014527;28;19935;-78
2022/04/30 14:10:05;;;;;;;;;;;;;;;;;;4997257;28;19925;-77
2022/04/30 14:12:31;;;;;;;;;;;;;;;;;;4980947;28;19922;-77
2022/04/30 14:14:56;;;;;;;;;;;;;;;;;;5014325;28;20235;-77
2022/04/30 14:20:07;;;;;;;;;;;;;;;;;;5000168;28;19925;-77
2022/04/30 14:22:35;;;;;;;;;;;;;;;;;;5014355;28;19913;-78
2022/04/30 14:25:00;;;;;;;;;;;;;;;;;;5014581;28;19928;-77
2022/04/30 14:27:26;;;;;;;;;;;;;;;;;;5000194;28;19917;-78
2022/04/30 14:29:51;;;;;;;;;;;;;;;;;;4984789;28;19913;-78
2022/04/30 14:32:18;;;;;;;;;;;;;;;;;;5018014;28;19979;-78
2022/04/30 14:34:46;;;;;;;;;;;;;;;;;;4998518;28;19948;-77
2022/04/30 14:37:12;;;;;;;;;;;;;;;;;;5000600;28;19925;-78
2022/04/30 14:39:40;;;;;;;;;;;;;;;;;;5000855;28;19917;-78
2022/04/30 14:42:06;;;;;;;;;;;;;;;;;;5001240;28;19997;-78
2022/04/30 14:44:32;;;;;;;;;;;;;;;;;;5018187;28;19914;-78
2022/04/30 14:46:57;;;;;;;;;;;;;;;;;;5017425;28;20318;-78
2022/04/30 14:49:25;;;;;;;;;;;;;;;;;;5001034;28;19967;-78
2022/04/30 14:51:50;;;;;;;;;;;;;;;;;;5001016;28;19941;-78
2022/04/30 14:54:16;;;;;;;;;;;;;;;;;;5000519;28;19971;-79
2022/04/30 14:56:42;;;;;;;;;;;;;;;;;;5000118;28;19925;-78
2022/04/30 14:59:08;;;;;;;;;;;;;;;;;;5017364;28;19925;-78
2022/04/30 15:01:34;;;;;;;;;;;;;;;;;;5000412;28;19920;-79
2022/04/30 15:03:59;;;;;;;;;;;;;;;;;;5015064;28;19918;-78
2022/04/30 15:06:24;;;;;;;;;;;;;;;;;;5021255;28;19964;-79
2022/04/30 15:08:52;;;;;;;;;;;;;;;;;;5000388;28;20385;-79
2022/04/30 15:11:17;;;;;;;;;;;;;;;;;;5000325;28;20264;-80
2022/04/30 15:13:42;;;;;;;;;;;;;;;;;;5017377;28;19921;-79
2022/04/30 15:16:07;;;;;;;;;;;;;;;;;;5017058;28;19914;-79
2022/04/30 15:18:35;;;;;;;;;;;;;;;;;;5000135;28;19917;-79
2022/04/30 15:21:00;;;;;;;;;;;;;;;;;;5000865;28;19913;-78
2022/04/30 15:23:25;;;;;;;;;;;;;;;;;;5017570;28;20381;-79
2022/04/30 15:25:52;;;;;;;;;;;;;;;;;;4984210;28;19921;-79
2022/04/30 15:28:18;;;;;;;;;;;;;;;;;;5000771;28;20369;-79
2022/04/30 15:30:44;;;;;;;;;;;;;;;;;;4999673;28;19913;-79
2022/04/30 15:33:09;;;;;;;;;;;;;;;;;;5000549;28;20016;-78
2022/04/30 15:35:34;;;;;;;;;;;;;;;;;;5017659;28;19921;-79
2022/04/30 15:38:00;;;;;;;;;;;;;;;;;;4999278;28;20236;-79
2022/04/30 15:40:25;;;;;;;;;;;;;;;;;;5017314;28;20286;-78
2022/04/30 15:42:51;;;;;;;;;;;;;;;;;;4999359;28;19913;-79
2022/04/30 15:45:18;;;;;;;;;;;;;;;;;;5016794;28;20011;-78
2022/04/30 15:53:12;;;;;;;;;;;;;;;;;;5002561;28;19979;-80
2022/04/30 15:55:38;;;;;;;;;;;;;;;;;;5016714;28;20352;-79
2022/04/30 15:58:04;;;;;;;;;;;;;;;;;;5016862;28;19928;-79
2022/04/30 16:00:31;;;;;;;;;;;;;;;;;;5016823;28;19924;-78
2022/04/30 16:02:57;;;;;;;;;;;;;;;;;;4999972;28;19917;-78
2022/04/30 16:05:22;;;;;;;;;;;;;;;;;;4990029;28;19917;-79
2022/04/30 16:07:48;;;;;;;;;;;;;;;;;;4999494;28;20012;-78
2022/04/30 16:10:13;;;;;;;;;;;;;;;;;;4983087;28;19927;-78
2022/04/30 16:12:38;;;;;;;;;;;;;;;;;;5016927;28;19913;-79
2022/04/30 16:15:05;;;;;;;;;;;;;;;;;;5015552;28;19913;-79
2022/04/30 16:17:31;;;;;;;;;;;;;;;;;;4983721;28;19927;-78
2022/04/30 16:19:59;;;;;;;;;;;;;;;;;;5016799;28;20011;-79
2022/04/30 16:22:24;;;;;;;;;;;;;;;;;;4999923;28;19968;-79
2022/04/30 16:24:51;;;;;;;;;;;;;;;;;;5016027;28;19921;-78
2022/04/30 16:27:17;;;;;;;;;;;;;;;;;;4999659;28;20301;-79
2022/04/30 16:29:42;;;;;;;;;;;;;;;;;;4982348;28;20020;-78
2022/04/30 16:32:08;;;;;;;;;;;;;;;;;;5016391;28;19929;-77
2022/04/30 16:34:33;;;;;;;;;;;;;;;;;;5016196;28;19925;-78
2022/04/30 16:36:58;;;;;;;;;;;;;;;;;;5016052;28;19913;-78
2022/04/30 16:39:24;;;;;;;;;;;;;;;;;;5015752;28;20361;-78
2022/04/30 16:41:49;;;;;;;;;;;;;;;;;;5015908;28;20291;-78
2022/04/30 16:44:14;;;;;;;;;;;;;;;;;;5016037;28;20296;-78
2022/04/30 16:46:39;;;;;;;;;;;;;;;;;;4998395;28;19980;-78
2022/04/30 16:49:05;;;;;;;;;;;;;;;;;;4997906;28;20290;-77
2022/04/30 16:54:14;;;;;;;;;;;;;;;;;;5009347;28;20231;-77
2022/04/30 16:59:24;;;;;;;;;;;;;;;;;;5015483;28;19927;-78
2022/04/30 17:01:49;;;;;;;;;;;;;;;;;;5015495;28;19992;-78
2022/04/30 17:04:14;;;;;;;;;;;;;;;;;;5015795;28;20335;-78
2022/04/30 17:06:41;;;;;;;;;;;;;;;;;;4998070;28;19917;-78
2022/04/30 17:09:06;;;;;;;;;;;;;;;;;;4998296;28;19963;-78
2022/04/30 17:11:31;;;;;;;;;;;;;;;;;;4997985;28;19917;-78
2022/04/30 17:13:57;;;;;;;;;;;;;;;;;;4998191;28;19914;-78
2022/04/30 17:16:22;;;;;;;;;;;;;;;;;;4998083;28;19964;-78
2022/04/30 17:18:48;;;;;;;;;;;;;;;;;;5013970;28;20008;-78
2022/04/30 17:21:13;;;;;;;;;;;;;;;;;;5013145;28;20016;-78
2022/04/30 17:23:47;;;;;;;;;;;;;;;;;;4994684;28;19914;-78
2022/04/30 17:26:12;;;;;;;;;;;;;;;;;;5009411;28;19921;-77
2022/04/30 17:28:38;;;;;;;;;;;;;;;;;;4997635;28;19928;-79
2022/04/30 17:39:15;;;;;;;;;;;;;;;;;;5014867;28;19924;-78
2022/04/30 17:41:42;;;;;;;;;;;;;;;;;;5014869;28;19913;-78
2022/04/30 17:44:07;;;;;;;;;;;;;;;;;;5014251;28;19948;-77
2022/04/30 17:46:35;;;;;;;;;;;;;;;;;;5014835;28;19917;-77
2022/04/30 17:49:03;;;;;;;;;;;;;;;;;;4998068;28;19914;-78
2022/04/30 17:51:32;;;;;;;;;;;;;;;;;;4997206;28;19918;-77
2022/04/30 17:53:59;;;;;;;;;;;;;;;;;;4997566;28;19917;-78
2022/04/30 17:56:29;;;;;;;;;;;;;;;;;;5014720;28;20301;-77